Time;durP1;ratioP1;P1;durP2;ratioP2;P2;SDS_P1;SDS_P2;PMS_P1;PMS_P2;Temp;Humidity;BMP_temperature;BMP_pressure;BME280_temperature;BME280_humidity;BME280_pressure;Samples;Min_cycle;Max_cycle;Signal;HPM_P1;HPM_P2
2023/01/07 00:00:31;;;;;;;1.70;1.60;;;8.10;99.90;;;;;;472228;250;27959;-80
2023/01/07 00:02:32;;;;;;;2.53;1.60;;;8.10;99.90;;;;;;472241;250;28562;-80
2023/01/07 00:04:34;;;;;;;1.50;1.40;;;8.10;99.90;;;;;;472258;250;28493;-80
2023/01/07 00:06:35;;;;;;;1.60;1.50;;;8.20;99.90;;;;;;472219;250;28433;-79
2023/01/07 00:08:36;;;;;;;1.90;1.77;;;8.20;99.90;;;;;;472214;250;28053;-79
2023/01/07 00:10:37;;;;;;;2.03;1.70;;;8.10;99.90;;;;;;472250;251;27798;-81
2023/01/07 00:12:39;;;;;;;2.37;1.70;;;8.20;99.90;;;;;;472242;247;27930;-80
2023/01/07 00:14:40;;;;;;;1.67;1.57;;;8.10;99.90;;;;;;472193;250;27608;-80
2023/01/07 00:16:41;;;;;;;3.57;2.00;;;8.20;99.90;;;;;;472181;250;28026;-80
2023/01/07 00:18:42;;;;;;;2.60;1.70;;;8.20;99.90;;;;;;472211;251;27951;-80
2023/01/07 00:20:44;;;;;;;1.30;1.20;;;8.20;99.90;;;;;;472242;250;27965;-80
2023/01/07 00:22:45;;;;;;;2.50;1.63;;;8.20;99.90;;;;;;472231;250;27919;-80
2023/01/07 00:24:46;;;;;;;1.57;1.47;;;8.20;99.90;;;;;;472275;250;27922;-80
2023/01/07 00:26:47;;;;;;;1.60;1.50;;;8.20;99.90;;;;;;472259;250;28026;-79
2023/01/07 00:28:49;;;;;;;1.60;1.50;;;8.20;99.90;;;;;;472257;251;27992;-79
2023/01/07 00:30:50;;;;;;;1.90;1.80;;;8.20;99.90;;;;;;472276;250;28431;-79
2023/01/07 00:33:03;;;;;;;2.70;1.50;;;8.20;99.90;;;;;;472224;247;28452;-80
2023/01/07 00:35:20;;;;;;;3.17;1.70;;;8.10;99.90;;;;;;472206;250;28505;-80
2023/01/07 00:39:26;;;;;;;3.50;1.80;;;8.10;99.90;;;;;;472244;252;28872;-81
2023/01/07 00:41:27;;;;;;;6.87;1.60;;;8.10;99.90;;;;;;472246;251;28477;-80
2023/01/07 00:43:28;;;;;;;1.80;1.70;;;8.10;99.90;;;;;;472260;251;28037;-80
2023/01/07 00:45:29;;;;;;;1.53;1.43;;;8.10;99.90;;;;;;472272;250;27407;-80
2023/01/07 00:47:31;;;;;;;1.67;1.57;;;8.10;99.90;;;;;;472237;250;28011;-81
2023/01/07 00:49:32;;;;;;;1.50;1.40;;;8.10;99.90;;;;;;472248;250;27919;-79
2023/01/07 00:51:33;;;;;;;1.83;1.73;;;8.10;99.90;;;;;;472266;250;27872;-80
2023/01/07 00:53:34;;;;;;;1.60;1.50;;;8.10;99.90;;;;;;472276;250;28039;-81
2023/01/07 00:55:36;;;;;;;1.93;1.33;;;8.10;99.90;;;;;;472231;250;27909;-79
2023/01/07 00:57:37;;;;;;;1.97;1.40;;;8.10;99.90;;;;;;472159;250;27984;-80
2023/01/07 00:59:38;;;;;;;1.90;1.70;;;8.10;99.90;;;;;;472096;250;28018;-80
2023/01/07 01:01:39;;;;;;;1.97;1.87;;;8.10;99.90;;;;;;472042;250;27931;-80
2023/01/07 01:03:41;;;;;;;1.67;1.57;;;8.10;99.90;;;;;;472191;250;28057;-80
2023/01/07 01:05:42;;;;;;;4.10;1.70;;;8.10;99.90;;;;;;472205;250;28245;-81
2023/01/07 01:07:43;;;;;;;1.93;1.60;;;8.10;99.90;;;;;;472218;251;27926;-79
2023/01/07 01:09:44;;;;;;;1.50;1.40;;;8.10;99.90;;;;;;472219;250;27617;-80
2023/01/07 01:11:46;;;;;;;1.83;1.73;;;8.10;99.90;;;;;;472263;250;28012;-79
2023/01/07 01:13:47;;;;;;;1.77;1.53;;;8.20;99.90;;;;;;472185;247;28199;-80
2023/01/07 01:15:48;;;;;;;6.57;1.60;;;8.20;99.90;;;;;;472193;250;27905;-80
2023/01/07 01:17:49;;;;;;;1.63;1.53;;;8.10;99.90;;;;;;472211;250;28397;-79
2023/01/07 01:19:51;;;;;;;1.47;1.37;;;8.20;99.90;;;;;;472182;251;29140;-80
2023/01/07 01:21:52;;;;;;;5.03;1.47;;;8.20;99.90;;;;;;472224;250;28010;-80
2023/01/07 01:23:54;;;;;;;1.60;1.50;;;8.20;99.90;;;;;;472236;250;28091;-80
2023/01/07 01:25:54;;;;;;;1.87;1.40;;;8.20;99.90;;;;;;472227;250;28439;-80
2023/01/07 01:27:56;;;;;;;1.67;1.57;;;8.20;99.90;;;;;;472232;251;28476;-80
2023/01/07 01:29:57;;;;;;;2.83;1.40;;;8.20;99.90;;;;;;472232;250;29368;-80
2023/01/07 01:31:59;;;;;;;1.73;1.30;;;8.20;99.90;;;;;;472224;250;28445;-80
2023/01/07 01:33:59;;;;;;;1.40;1.30;;;8.20;99.90;;;;;;472169;252;28471;-81
2023/01/07 01:36:01;;;;;;;1.63;1.53;;;8.20;99.90;;;;;;472224;250;28119;-80
2023/01/07 01:38:02;;;;;;;2.10;1.40;;;8.10;99.90;;;;;;472217;250;27942;-80
2023/01/07 01:40:03;;;;;;;1.50;1.40;;;8.20;99.90;;;;;;472209;250;28098;-80
2023/01/07 01:42:04;;;;;;;1.40;1.30;;;8.10;99.90;;;;;;472242;250;28051;-79
2023/01/07 01:44:06;;;;;;;1.60;1.50;;;8.20;99.90;;;;;;472257;250;28030;-81
2023/01/07 01:46:07;;;;;;;1.83;1.40;;;8.20;99.90;;;;;;472217;250;27955;-80
2023/01/07 01:48:08;;;;;;;1.60;1.50;;;8.20;99.90;;;;;;472201;250;28166;-79
2023/01/07 01:50:09;;;;;;;1.47;1.37;;;8.20;99.90;;;;;;472219;250;27790;-79
2023/01/07 01:52:11;;;;;;;2.10;1.40;;;8.20;99.90;;;;;;472252;250;27645;-79
2023/01/07 01:54:12;;;;;;;2.20;1.43;;;8.20;99.90;;;;;;472277;250;28050;-80
2023/01/07 01:56:13;;;;;;;1.30;1.20;;;8.20;99.90;;;;;;472142;251;28115;-80
2023/01/07 01:58:15;;;;;;;1.50;1.40;;;8.20;99.90;;;;;;472095;247;28043;-80
2023/01/07 02:00:16;;;;;;;1.40;1.40;;;8.20;99.90;;;;;;471390;250;29054;-80
2023/01/07 02:02:17;;;;;;;1.33;1.23;;;8.20;99.90;;;;;;471581;247;28510;-80
2023/01/07 02:04:18;;;;;;;1.30;1.20;;;8.20;99.90;;;;;;471888;251;28346;-79
2023/01/07 02:06:20;;;;;;;1.13;1.13;;;8.20;99.90;;;;;;472173;251;28296;-79
2023/01/07 02:08:22;;;;;;;1.20;1.20;;;8.20;99.90;;;;;;472221;250;28526;-80
2023/01/07 02:10:22;;;;;;;1.83;1.23;;;8.20;99.90;;;;;;472150;252;28177;-81
2023/01/07 02:12:23;;;;;;;2.40;1.40;;;8.10;99.90;;;;;;472245;250;27651;-80
2023/01/07 02:14:25;;;;;;;1.53;1.43;;;8.10;99.90;;;;;;472243;250;28099;-80
2023/01/07 02:16:26;;;;;;;1.63;1.53;;;8.10;99.90;;;;;;472220;251;27674;-80
2023/01/07 02:18:27;;;;;;;1.50;1.40;;;8.10;99.90;;;;;;472244;250;28011;-80
2023/01/07 02:20:28;;;;;;;1.70;1.60;;;8.10;99.90;;;;;;472286;250;27903;-80
2023/01/07 02:22:30;;;;;;;1.67;1.40;;;8.10;99.90;;;;;;472299;250;27994;-80
2023/01/07 02:24:31;;;;;;;1.60;1.50;;;8.10;99.90;;;;;;472270;250;28122;-80
2023/01/07 02:26:32;;;;;;;1.67;1.57;;;8.10;99.90;;;;;;472252;250;28018;-80
2023/01/07 02:28:33;;;;;;;1.60;1.50;;;8.10;99.90;;;;;;472260;251;27949;-80
2023/01/07 02:30:35;;;;;;;1.87;1.23;;;8.10;99.90;;;;;;472267;250;28388;-81
2023/01/07 02:32:36;;;;;;;1.80;1.70;;;8.10;99.90;;;;;;472312;250;27906;-80
2023/01/07 02:34:37;;;;;;;1.43;1.33;;;8.10;99.90;;;;;;472297;250;28026;-80
2023/01/07 02:36:38;;;;;;;1.60;1.50;;;8.10;99.90;;;;;;472199;251;27951;-80
2023/01/07 02:38:40;;;;;;;1.97;1.77;;;8.10;99.90;;;;;;472220;250;28257;-80
2023/01/07 02:40:41;;;;;;;1.57;1.47;;;8.10;99.90;;;;;;472303;250;28471;-80
2023/01/07 02:42:42;;;;;;;1.77;1.67;;;8.10;99.90;;;;;;472217;250;28324;-80
2023/01/07 02:44:43;;;;;;;1.70;1.60;;;8.10;99.90;;;;;;472221;250;28519;-79
2023/01/07 02:46:45;;;;;;;2.23;1.63;;;8.10;99.90;;;;;;472252;250;28388;-80
2023/01/07 02:48:46;;;;;;;6.00;1.70;;;8.10;99.90;;;;;;472222;250;27955;-80
2023/01/07 02:50:47;;;;;;;1.63;1.53;;;8.10;99.90;;;;;;472276;251;28044;-80
2023/01/07 02:52:48;;;;;;;1.50;1.40;;;8.10;99.90;;;;;;472273;250;27859;-81
2023/01/07 02:54:50;;;;;;;1.60;1.50;;;8.10;99.90;;;;;;472253;250;27608;-79
2023/01/07 02:56:51;;;;;;;1.60;1.50;;;8.10;99.90;;;;;;472238;247;27784;-80
2023/01/07 02:58:52;;;;;;;1.10;1.10;;;8.10;99.90;;;;;;472212;250;27930;-80
2023/01/07 03:00:53;;;;;;;1.37;1.30;;;8.10;99.90;;;;;;472213;247;28023;-80
2023/01/07 03:02:55;;;;;;;1.97;1.37;;;8.10;99.90;;;;;;472269;251;27995;-80
2023/01/07 03:04:56;;;;;;;1.40;1.30;;;8.00;99.90;;;;;;472286;250;28075;-79
2023/01/07 03:06:57;;;;;;;1.30;1.20;;;8.00;99.90;;;;;;472249;251;27682;-80
2023/01/07 03:08:58;;;;;;;1.47;1.37;;;8.00;99.90;;;;;;472242;250;27894;-80
2023/01/07 03:11:00;;;;;;;1.50;1.30;;;8.00;99.90;;;;;;472245;250;27758;-79
2023/01/07 03:13:01;;;;;;;1.43;1.33;;;8.00;99.90;;;;;;472260;250;27494;-80
2023/01/07 03:15:02;;;;;;;1.40;1.30;;;8.00;99.90;;;;;;472261;250;28021;-80
2023/01/07 03:17:03;;;;;;;1.50;1.40;;;8.00;99.90;;;;;;472222;250;27874;-80
2023/01/07 03:19:05;;;;;;;1.40;1.30;;;8.00;99.90;;;;;;472253;250;28441;-80
2023/01/07 03:21:06;;;;;;;1.57;1.10;;;8.00;99.90;;;;;;472247;250;28562;-81
2023/01/07 03:23:07;;;;;;;2.83;1.30;;;8.00;99.90;;;;;;472255;250;28432;-80
2023/01/07 03:25:08;;;;;;;1.50;1.40;;;8.00;99.90;;;;;;472271;250;28319;-81
2023/01/07 03:27:10;;;;;;;2.20;1.80;;;8.00;99.90;;;;;;472243;250;27846;-80
2023/01/07 03:29:11;;;;;;;1.50;1.40;;;8.00;99.90;;;;;;472206;250;27954;-80
2023/01/07 03:31:12;;;;;;;1.40;1.30;;;8.00;99.90;;;;;;472236;250;27903;-80
2023/01/07 03:33:13;;;;;;;2.63;1.70;;;8.10;99.90;;;;;;472183;247;27888;-80
2023/01/07 03:35:15;;;;;;;1.30;1.20;;;8.00;99.90;;;;;;472168;252;27914;-79
2023/01/07 03:37:16;;;;;;;1.73;1.30;;;8.00;99.90;;;;;;472146;250;28042;-80
2023/01/07 03:39:17;;;;;;;4.87;1.70;;;8.00;99.90;;;;;;472124;251;28270;-80
2023/01/07 03:43:38;;;;;;;1.43;1.33;;;8.00;99.90;;;;;;472176;247;27952;-82
2023/01/07 03:45:39;;;;;;;1.53;1.40;;;8.00;99.90;;;;;;472241;247;27571;-79
2023/01/07 03:47:40;;;;;;;1.40;1.30;;;8.00;99.90;;;;;;472381;251;27919;-80
2023/01/07 03:49:41;;;;;;;1.80;1.70;;;8.00;99.90;;;;;;472409;251;27902;-79
2023/01/07 03:51:43;;;;;;;1.50;1.23;;;8.00;99.90;;;;;;472411;250;27993;-80
2023/01/07 03:53:44;;;;;;;1.60;1.50;;;8.10;99.90;;;;;;472336;251;27926;-80
2023/01/07 03:55:45;;;;;;;1.77;1.40;;;8.10;99.90;;;;;;472281;250;27779;-80
2023/01/07 03:57:46;;;;;;;1.40;1.30;;;8.00;99.90;;;;;;472294;250;27882;-80
2023/01/07 03:59:48;;;;;;;1.37;1.27;;;8.00;99.90;;;;;;472287;250;27980;-80
2023/01/07 04:01:49;;;;;;;1.20;1.10;;;8.10;99.90;;;;;;472305;250;28026;-80
2023/01/07 04:03:50;;;;;;;1.53;1.20;;;8.00;99.90;;;;;;472297;250;27925;-80
2023/01/07 04:05:51;;;;;;;1.73;1.27;;;8.00;99.90;;;;;;472271;251;27730;-81
2023/01/07 04:07:53;;;;;;;1.60;1.50;;;8.00;99.90;;;;;;472240;251;28443;-80
2023/01/07 04:09:54;;;;;;;1.47;1.37;;;8.00;99.90;;;;;;472277;251;28437;-80
2023/01/07 04:11:55;;;;;;;2.00;1.30;;;8.00;99.90;;;;;;472308;250;28600;-81
2023/01/07 04:13:59;;;;;;;1.37;1.30;;;8.00;99.90;;;;;;472273;250;28436;-80
2023/01/07 04:15:58;;;;;;;1.30;1.30;;;8.10;99.90;;;;;;472110;252;28470;-80
2023/01/07 04:17:59;;;;;;;1.60;1.50;;;8.00;99.90;;;;;;472252;250;28561;-80
2023/01/07 04:20:00;;;;;;;2.13;1.53;;;8.00;99.90;;;;;;472274;250;27985;-79
2023/01/07 04:22:01;;;;;;;1.20;1.20;;;8.00;99.90;;;;;;472276;246;28021;-81
2023/01/07 04:24:03;;;;;;;1.40;1.30;;;8.00;99.90;;;;;;472246;250;27935;-80
2023/01/07 04:26:04;;;;;;;1.20;1.20;;;8.00;99.90;;;;;;472313;250;27976;-80
2023/01/07 04:28:05;;;;;;;2.30;1.20;;;8.00;99.90;;;;;;472257;250;27974;-80
2023/01/07 04:30:06;;;;;;;3.33;1.10;;;8.00;99.90;;;;;;472310;250;27991;-80
2023/01/07 04:32:08;;;;;;;1.87;1.23;;;8.00;99.90;;;;;;472263;250;28049;-80
2023/01/07 04:34:09;;;;;;;1.30;1.17;;;8.00;99.90;;;;;;472263;247;28018;-80
2023/01/07 04:36:12;;;;;;;3.50;1.50;;;8.10;99.90;;;;;;472245;250;28498;-79
2023/01/07 04:38:11;;;;;;;1.40;1.40;;;8.00;99.90;;;;;;472214;250;28438;-79
2023/01/07 04:40:13;;;;;;;1.37;1.30;;;8.00;99.90;;;;;;472299;250;27991;-80
2023/01/07 04:42:14;;;;;;;1.43;1.30;;;8.00;99.90;;;;;;472270;250;28390;-80
2023/01/07 04:44:16;;;;;;;2.53;1.60;;;8.10;99.90;;;;;;472242;250;28360;-80
2023/01/07 04:46:16;;;;;;;1.10;1.10;;;8.00;99.90;;;;;;472198;250;27978;-80
2023/01/07 04:48:18;;;;;;;1.30;1.30;;;8.00;99.90;;;;;;472299;251;27955;-79
2023/01/07 04:50:19;;;;;;;1.50;1.40;;;8.00;99.90;;;;;;472290;250;27899;-80
2023/01/07 04:52:20;;;;;;;1.00;1.00;;;8.00;99.90;;;;;;472275;251;28026;-81
2023/01/07 04:54:21;;;;;;;2.17;1.20;;;8.10;99.90;;;;;;472294;250;27966;-80
2023/01/07 04:56:23;;;;;;;1.30;1.20;;;8.00;99.90;;;;;;472254;250;28274;-79
2023/01/07 04:58:24;;;;;;;1.30;1.30;;;8.00;99.90;;;;;;472320;250;28037;-79
2023/01/07 05:00:25;;;;;;;1.57;1.20;;;8.00;99.90;;;;;;472278;250;28039;-79
2023/01/07 05:02:26;;;;;;;1.33;1.23;;;8.00;99.90;;;;;;472256;250;28023;-80
2023/01/07 05:04:28;;;;;;;1.10;1.10;;;8.00;99.90;;;;;;472220;251;28492;-80
2023/01/07 05:06:29;;;;;;;1.87;1.30;;;8.00;99.90;;;;;;472243;250;27987;-79
2023/01/07 05:08:30;;;;;;;1.50;1.40;;;8.00;99.90;;;;;;472319;250;28137;-81
2023/01/07 05:10:31;;;;;;;1.30;1.20;;;8.00;99.90;;;;;;472224;252;27794;-80
2023/01/07 05:12:33;;;;;;;1.80;1.33;;;8.00;99.90;;;;;;472290;251;27930;-80
2023/01/07 05:14:34;;;;;;;1.03;1.00;;;8.00;99.90;;;;;;472249;251;28333;-80
2023/01/07 05:16:35;;;;;;;1.50;1.30;;;8.00;99.90;;;;;;472265;250;28534;-79
2023/01/07 05:18:36;;;;;;;3.30;1.37;;;8.00;99.90;;;;;;472312;250;28413;-80
2023/01/07 05:20:38;;;;;;;1.37;1.27;;;8.00;99.90;;;;;;472308;250;28365;-79
2023/01/07 05:22:39;;;;;;;2.73;1.73;;;8.00;99.90;;;;;;472287;250;28084;-80
2023/01/07 05:24:40;;;;;;;1.50;1.40;;;8.00;99.90;;;;;;472259;252;27859;-80
2023/01/07 05:26:41;;;;;;;1.43;1.33;;;8.00;99.90;;;;;;472206;250;27993;-80
2023/01/07 05:28:43;;;;;;;1.33;1.30;;;8.00;99.90;;;;;;472280;251;28098;-79
2023/01/07 05:30:44;;;;;;;1.40;1.30;;;8.00;99.90;;;;;;472223;252;27994;-80
2023/01/07 05:32:45;;;;;;;1.17;1.17;;;8.00;99.90;;;;;;472167;251;28281;-79
2023/01/07 05:34:46;;;;;;;1.13;1.13;;;8.00;99.90;;;;;;472165;250;27506;-80
2023/01/07 05:36:48;;;;;;;1.20;1.10;;;8.00;99.90;;;;;;472160;250;28062;-79
2023/01/07 05:38:49;;;;;;;2.10;1.20;;;8.00;99.90;;;;;;472216;250;27999;-80
2023/01/07 05:40:50;;;;;;;1.40;1.30;;;8.00;99.90;;;;;;472213;250;27929;-79
2023/01/07 05:42:51;;;;;;;1.60;1.50;;;8.00;99.90;;;;;;472272;250;27698;-81
2023/01/07 05:44:53;;;;;;;1.83;1.20;;;8.00;99.90;;;;;;472235;250;27651;-79
2023/01/07 05:46:54;;;;;;;1.23;1.23;;;8.00;99.90;;;;;;472250;250;27836;-80
2023/01/07 05:48:55;;;;;;;1.50;1.40;;;8.00;99.90;;;;;;472291;250;27878;-80
2023/01/07 05:50:56;;;;;;;1.40;1.30;;;8.00;99.90;;;;;;472252;251;27915;-79
2023/01/07 05:52:58;;;;;;;1.10;1.10;;;7.90;99.90;;;;;;472217;250;28627;-79
2023/01/07 05:54:59;;;;;;;1.60;1.50;;;7.90;99.90;;;;;;472201;251;28856;-80
2023/01/07 05:57:00;;;;;;;1.97;1.30;;;7.90;99.90;;;;;;472238;250;28407;-80
2023/01/07 05:59:01;;;;;;;1.37;1.27;;;7.90;99.90;;;;;;472240;250;28122;-80
2023/01/07 06:01:03;;;;;;;2.00;1.40;;;7.90;99.90;;;;;;472169;250;28314;-79
2023/01/07 06:03:04;;;;;;;1.47;1.37;;;8.00;99.90;;;;;;472210;250;28052;-79
2023/01/07 06:05:05;;;;;;;4.50;1.60;;;7.90;99.90;;;;;;472268;250;28122;-79
2023/01/07 06:07:06;;;;;;;2.20;1.20;;;8.00;99.90;;;;;;472249;250;27888;-79
2023/01/07 06:09:08;;;;;;;1.90;1.30;;;7.90;99.90;;;;;;472211;250;27945;-81
2023/01/07 06:11:09;;;;;;;2.40;1.10;;;7.90;99.90;;;;;;472224;250;27967;-79
2023/01/07 06:13:10;;;;;;;1.40;1.30;;;7.90;99.90;;;;;;472219;250;27577;-80
2023/01/07 06:15:11;;;;;;;1.50;1.40;;;7.90;99.90;;;;;;472222;251;28078;-80
2023/01/07 06:17:13;;;;;;;1.77;1.67;;;7.90;99.90;;;;;;472226;251;27821;-79
2023/01/07 06:19:14;;;;;;;1.33;1.23;;;7.90;99.90;;;;;;472250;250;28080;-80
2023/01/07 06:21:17;;;;;;;1.40;1.30;;;7.90;99.90;;;;;;472241;250;27866;-80
2023/01/07 06:23:16;;;;;;;1.37;1.30;;;7.90;99.90;;;;;;472127;252;27914;-80
2023/01/07 06:25:18;;;;;;;1.37;1.27;;;7.90;99.90;;;;;;472206;250;27928;-80
2023/01/07 06:27:19;;;;;;;1.97;1.60;;;7.90;99.90;;;;;;472230;250;28113;-80
2023/01/07 06:29:20;;;;;;;1.50;1.40;;;7.90;99.90;;;;;;472266;250;28478;-79
2023/01/07 06:31:21;;;;;;;1.63;1.53;;;7.90;99.90;;;;;;472224;250;28465;-80
2023/01/07 06:33:25;;;;;;;1.60;1.50;;;7.80;99.90;;;;;;472211;250;28551;-81
2023/01/07 06:35:26;;;;;;;1.70;1.60;;;7.80;99.90;;;;;;472204;250;27755;-78
2023/01/07 06:37:27;;;;;;;1.60;1.50;;;7.90;99.90;;;;;;472219;251;28007;-79
2023/01/07 06:39:28;;;;;;;1.30;1.20;;;7.90;99.90;;;;;;472247;250;28190;-80
2023/01/07 06:41:30;;;;;;;1.40;1.30;;;7.80;99.90;;;;;;472247;251;28271;-80
2023/01/07 06:43:31;;;;;;;3.73;1.30;;;7.90;99.90;;;;;;472171;250;28384;-79
2023/01/07 06:45:32;;;;;;;3.17;1.90;;;7.80;99.90;;;;;;472228;250;28236;-80
2023/01/07 06:47:33;;;;;;;1.43;1.33;;;7.80;99.90;;;;;;472237;250;28516;-80
2023/01/07 06:49:35;;;;;;;1.33;1.33;;;7.80;99.90;;;;;;472241;250;28578;-80
2023/01/07 06:51:36;;;;;;;1.40;1.30;;;7.80;99.90;;;;;;472252;250;28109;-80
2023/01/07 06:53:37;;;;;;;1.50;1.40;;;7.80;99.90;;;;;;472044;252;28014;-81
2023/01/07 06:55:38;;;;;;;2.40;1.13;;;7.90;99.90;;;;;;472227;247;27632;-80
2023/01/07 06:57:40;;;;;;;1.73;1.40;;;7.80;99.90;;;;;;472275;250;28021;-80
2023/01/07 06:59:41;;;;;;;2.50;1.53;;;7.80;99.90;;;;;;472271;250;27922;-81
2023/01/07 07:01:42;;;;;;;1.10;1.10;;;7.80;99.90;;;;;;472229;250;27791;-80
2023/01/07 07:03:43;;;;;;;1.30;1.20;;;7.80;99.90;;;;;;472265;250;28054;-79
2023/01/07 07:05:45;;;;;;;1.20;1.20;;;7.80;99.90;;;;;;472279;252;28886;-81
2023/01/07 07:07:46;;;;;;;1.63;1.43;;;7.80;99.90;;;;;;472242;252;28395;-79
2023/01/07 07:09:49;;;;;;;1.43;1.33;;;7.80;99.90;;;;;;472273;251;28185;-81
2023/01/07 07:11:48;;;;;;;1.50;1.40;;;7.80;99.90;;;;;;472164;252;28353;-79
2023/01/07 07:13:50;;;;;;;1.30;1.20;;;7.80;99.90;;;;;;472265;250;28580;-80
2023/01/07 07:15:51;;;;;;;1.43;1.40;;;7.80;99.90;;;;;;472272;250;28003;-80
2023/01/07 07:17:52;;;;;;;1.57;1.43;;;7.80;99.90;;;;;;472277;250;27795;-80
2023/01/07 07:19:53;;;;;;;1.70;1.60;;;7.80;99.90;;;;;;472304;250;27835;-80
2023/01/07 07:21:55;;;;;;;1.50;1.40;;;7.80;99.90;;;;;;472256;250;27859;-80
2023/01/07 07:23:56;;;;;;;1.60;1.50;;;7.80;99.90;;;;;;472218;250;27984;-79
2023/01/07 07:25:57;;;;;;;1.50;1.40;;;7.80;99.90;;;;;;472224;250;27542;-79
2023/01/07 07:27:58;;;;;;;1.20;1.20;;;7.80;99.90;;;;;;472275;251;27736;-79
2023/01/07 07:30:00;;;;;;;1.60;1.50;;;7.80;99.90;;;;;;472228;250;27750;-79
2023/01/07 07:32:02;;;;;;;1.50;1.40;;;7.80;99.90;;;;;;472253;250;27882;-79
2023/01/07 07:34:03;;;;;;;6.13;1.80;;;7.80;99.90;;;;;;472214;250;27861;-80
2023/01/07 07:36:04;;;;;;;5.20;1.50;;;7.70;99.90;;;;;;472188;252;27746;-80
2023/01/07 07:38:05;;;;;;;2.87;2.03;;;7.80;99.90;;;;;;472216;250;28041;-80
2023/01/07 07:40:06;;;;;;;1.70;1.60;;;7.80;99.90;;;;;;472262;250;27783;-80
2023/01/07 07:42:07;;;;;;;1.90;1.80;;;7.80;99.90;;;;;;472252;250;28051;-80
2023/01/07 07:44:08;;;;;;;1.83;1.73;;;7.70;99.90;;;;;;472203;250;28387;-80
2023/01/07 07:46:10;;;;;;;2.10;1.70;;;7.80;99.90;;;;;;472232;250;28339;-79
2023/01/07 07:48:11;;;;;;;1.60;1.50;;;7.80;99.90;;;;;;472223;250;28691;-79
2023/01/07 07:50:12;;;;;;;2.27;2.10;;;7.80;99.90;;;;;;472281;250;28004;-80
2023/01/07 07:52:13;;;;;;;3.73;2.40;;;7.80;99.90;;;;;;472230;250;28068;-80
2023/01/07 07:54:15;;;;;;;3.03;1.73;;;7.80;99.90;;;;;;472224;250;28059;-80
2023/01/07 07:56:16;;;;;;;2.20;1.53;;;7.80;99.90;;;;;;472190;250;27946;-79
2023/01/07 07:58:17;;;;;;;2.13;2.00;;;7.80;99.90;;;;;;472216;250;28089;-79
2023/01/07 08:00:18;;;;;;;5.43;1.70;;;7.90;99.90;;;;;;472269;250;27577;-80
2023/01/07 08:02:20;;;;;;;3.77;2.43;;;7.90;99.90;;;;;;472266;250;27897;-80
2023/01/07 08:04:21;;;;;;;2.97;1.70;;;7.90;99.90;;;;;;472245;251;27956;-80
2023/01/07 08:06:28;;;;;;;1.80;1.70;;;7.90;99.90;;;;;;472174;250;27991;-80
2023/01/07 08:08:29;;;;;;;2.13;2.03;;;7.90;99.90;;;;;;471988;251;28040;-78
2023/01/07 08:10:30;;;;;;;2.50;2.03;;;7.90;99.90;;;;;;472084;251;28568;-81
2023/01/07 08:12:32;;;;;;;7.90;1.80;;;7.90;99.90;;;;;;472152;250;28266;-80
2023/01/07 08:14:33;;;;;;;2.33;1.70;;;7.90;99.90;;;;;;472114;250;28542;-79
2023/01/07 08:16:34;;;;;;;2.20;2.00;;;8.00;99.90;;;;;;472037;252;28534;-79
2023/01/07 08:18:38;;;;;;;5.27;2.27;;;8.00;99.90;;;;;;472289;250;28566;-80
2023/01/07 08:20:38;;;;;;;2.70;1.60;;;8.10;99.90;;;;;;472188;252;27922;-77
2023/01/07 08:22:39;;;;;;;3.00;1.80;;;8.00;99.90;;;;;;472362;246;28032;-80
2023/01/07 08:24:40;;;;;;;5.93;2.00;;;8.10;99.90;;;;;;472327;251;28431;-79
2023/01/07 08:26:41;;;;;;;3.10;1.67;;;8.10;99.90;;;;;;472251;251;28552;-80
2023/01/07 08:28:43;;;;;;;2.17;1.43;;;8.10;99.90;;;;;;472252;250;28867;-80
2023/01/07 08:30:44;;;;;;;1.77;1.67;;;8.10;99.90;;;;;;472296;250;28357;-80
2023/01/07 08:32:45;;;;;;;1.70;1.60;;;8.10;99.90;;;;;;472293;250;28550;-79
2023/01/07 08:34:46;;;;;;;3.03;1.60;;;8.10;99.90;;;;;;472236;250;28420;-80
2023/01/07 08:36:48;;;;;;;1.30;1.20;;;8.10;99.90;;;;;;472206;250;27790;-80
2023/01/07 08:38:49;;;;;;;3.03;1.80;;;8.20;99.90;;;;;;472229;250;27929;-78
2023/01/07 08:40:50;;;;;;;2.00;1.40;;;8.20;99.90;;;;;;472265;250;28205;-80
2023/01/07 08:42:51;;;;;;;1.90;1.43;;;8.20;99.90;;;;;;472228;247;27614;-80
2023/01/07 08:44:53;;;;;;;1.90;1.73;;;8.20;99.90;;;;;;472217;250;27881;-80
2023/01/07 08:46:54;;;;;;;1.63;1.50;;;8.30;99.90;;;;;;472169;251;27913;-79
2023/01/07 08:48:55;;;;;;;1.80;1.70;;;8.30;99.90;;;;;;472219;250;27917;-80
2023/01/07 08:50:56;;;;;;;1.73;1.60;;;8.30;99.90;;;;;;472272;250;28006;-79
2023/01/07 08:52:58;;;;;;;1.70;1.60;;;8.40;99.90;;;;;;472248;250;28047;-80
2023/01/07 08:55:00;;;;;;;1.90;1.50;;;8.30;99.90;;;;;;472214;250;28105;-80
2023/01/07 08:57:01;;;;;;;1.50;1.40;;;8.30;99.90;;;;;;472228;250;28419;-79
2023/01/07 08:59:02;;;;;;;4.07;1.87;;;8.40;99.90;;;;;;472221;252;28010;-80
2023/01/07 09:01:04;;;;;;;2.00;1.90;;;8.40;99.90;;;;;;472278;250;28026;-80
2023/01/07 09:03:05;;;;;;;3.57;2.00;;;8.40;99.90;;;;;;472205;250;28001;-80
2023/01/07 09:05:06;;;;;;;3.43;1.73;;;8.40;99.90;;;;;;472195;250;27809;-80
2023/01/07 09:07:07;;;;;;;1.60;1.50;;;8.40;99.90;;;;;;472210;250;27993;-80
2023/01/07 09:09:10;;;;;;;1.70;1.60;;;8.40;99.90;;;;;;472252;250;28013;-80
2023/01/07 09:11:10;;;;;;;2.33;1.60;;;8.50;99.90;;;;;;472187;252;27716;-80
2023/01/07 09:13:11;;;;;;;2.10;1.90;;;8.60;99.90;;;;;;472225;250;27922;-79
2023/01/07 09:15:12;;;;;;;2.23;2.03;;;8.50;99.90;;;;;;472245;250;28050;-80
2023/01/07 09:17:14;;;;;;;4.47;2.40;;;8.50;99.90;;;;;;472228;247;27770;-80
2023/01/07 09:19:15;;;;;;;2.60;2.20;;;8.50;99.90;;;;;;472225;250;27683;-80
2023/01/07 09:21:16;;;;;;;2.23;2.00;;;8.50;99.90;;;;;;472238;250;27839;-81
2023/01/07 09:23:17;;;;;;;3.30;2.30;;;8.50;99.90;;;;;;472230;250;27873;-80
2023/01/07 09:25:19;;;;;;;2.83;2.23;;;8.60;99.90;;;;;;472225;250;27898;-80
2023/01/07 09:27:21;;;;;;;2.50;2.30;;;8.60;99.90;;;;;;472170;251;27761;-80
2023/01/07 09:29:21;;;;;;;2.67;2.47;;;8.50;99.90;;;;;;472227;251;28339;-80
2023/01/07 09:31:23;;;;;;;2.50;2.30;;;8.60;99.90;;;;;;472261;251;28507;-80
2023/01/07 09:33:24;;;;;;;2.27;2.10;;;8.60;99.90;;;;;;472238;250;28518;-80
2023/01/07 09:35:25;;;;;;;2.23;1.90;;;8.50;99.90;;;;;;472216;250;28347;-80
2023/01/07 09:37:26;;;;;;;2.50;2.30;;;8.60;99.90;;;;;;472228;251;28395;-81
2023/01/07 09:39:28;;;;;;;2.20;1.80;;;8.60;99.90;;;;;;472254;250;27983;-80
2023/01/07 09:41:29;;;;;;;2.00;1.90;;;8.60;99.90;;;;;;472249;250;28074;-80
2023/01/07 09:43:30;;;;;;;1.93;1.83;;;8.60;99.90;;;;;;472241;250;27622;-80
2023/01/07 09:45:32;;;;;;;3.63;2.20;;;8.60;99.90;;;;;;472231;250;27972;-80
2023/01/07 09:47:33;;;;;;;1.90;1.80;;;8.60;99.90;;;;;;472247;251;28370;-79
2023/01/07 09:49:34;;;;;;;4.07;2.17;;;8.50;99.90;;;;;;472246;250;27800;-80
2023/01/07 09:51:35;;;;;;;2.03;1.93;;;8.50;99.90;;;;;;472278;250;27812;-81
2023/01/07 09:53:37;;;;;;;2.60;2.40;;;8.60;99.90;;;;;;472209;250;27995;-80
2023/01/07 09:55:38;;;;;;;1.73;1.63;;;8.60;99.90;;;;;;472106;250;28052;-80
2023/01/07 09:57:39;;;;;;;2.73;1.73;;;8.60;99.90;;;;;;472157;250;28081;-80
2023/01/07 09:59:40;;;;;;;2.20;2.00;;;8.70;99.90;;;;;;472137;250;27872;-80
2023/01/07 10:01:42;;;;;;;1.90;1.80;;;8.70;99.90;;;;;;472140;250;27986;-80
2023/01/07 10:03:43;;;;;;;2.20;2.00;;;8.70;99.90;;;;;;472260;250;27903;-80
2023/01/07 10:05:44;;;;;;;1.90;1.80;;;8.70;99.90;;;;;;472220;250;27594;-80
2023/01/07 10:07:45;;;;;;;1.90;1.80;;;8.80;99.90;;;;;;472255;250;28025;-81
2023/01/07 10:09:47;;;;;;;1.70;1.60;;;8.80;99.90;;;;;;472239;250;28539;-80
2023/01/07 10:11:48;;;;;;;1.80;1.70;;;8.80;99.90;;;;;;472212;250;28989;-79
2023/01/07 10:13:49;;;;;;;2.00;1.90;;;8.70;99.90;;;;;;472205;250;28222;-80
2023/01/07 10:15:50;;;;;;;1.70;1.60;;;8.70;99.90;;;;;;472199;252;28520;-80
2023/01/07 10:17:52;;;;;;;2.10;1.90;;;8.70;99.90;;;;;;472254;250;28556;-80
2023/01/07 10:19:53;;;;;;;4.33;2.00;;;8.60;99.90;;;;;;472204;250;28415;-80
2023/01/07 10:21:54;;;;;;;2.00;1.90;;;8.60;99.90;;;;;;472222;250;28144;-81
2023/01/07 10:23:56;;;;;;;2.13;1.80;;;8.60;99.90;;;;;;472150;247;27770;-80
2023/01/07 10:25:57;;;;;;;1.90;1.80;;;8.60;99.90;;;;;;471534;250;28076;-80
2023/01/07 10:27:58;;;;;;;1.60;1.50;;;8.70;99.90;;;;;;471412;250;28176;-80
2023/01/07 10:30:02;;;;;;;1.80;1.70;;;8.70;99.90;;;;;;471865;250;27985;-80
2023/01/07 10:32:03;;;;;;;2.20;2.10;;;8.80;99.90;;;;;;472209;250;28003;-80
2023/01/07 10:34:04;;;;;;;3.27;2.10;;;8.80;99.90;;;;;;472207;247;27594;-80
2023/01/07 10:36:06;;;;;;;2.83;2.63;;;8.80;99.90;;;;;;472261;250;28051;-80
2023/01/07 10:38:07;;;;;;;2.40;2.20;;;8.70;99.90;;;;;;472289;250;27948;-80
2023/01/07 10:40:10;;;;;;;2.43;1.80;;;8.70;99.90;;;;;;472267;250;28039;-80
2023/01/07 10:42:09;;;;;;;1.97;1.87;;;8.70;99.90;;;;;;472113;246;27778;-81
2023/01/07 10:44:11;;;;;;;2.30;2.10;;;8.80;99.90;;;;;;472226;250;28528;-81